Time;durP1;ratioP1;P1;durP2;ratioP2;P2;SDS_P1;SDS_P2;PMS_P1;PMS_P2;Temp;Humidity;BMP_temperature;BMP_pressure;BME280_temperature;BME280_humidity;BME280_pressure;Samples;Min_cycle;Max_cycle;Signal;HPM_P1;HPM_P2
2023/08/29 00:02:13;;;;;;;4.88;2.13;;;13.60;99.90;;;;;;4996091;28;20092;-89
2023/08/29 00:04:39;;;;;;;7.57;2.83;;;13.60;99.90;;;;;;4996095;28;20033;-88
2023/08/29 00:07:05;;;;;;;3.40;2.00;;;13.60;99.90;;;;;;4996097;28;20120;-88
2023/08/29 00:09:31;;;;;;;6.40;2.95;;;13.60;99.90;;;;;;4995619;28;20095;-88
2023/08/29 00:11:57;;;;;;;5.00;2.25;;;13.60;99.90;;;;;;4995881;28;20030;-87
2023/08/29 00:14:23;;;;;;;6.63;2.00;;;13.60;99.90;;;;;;4996600;28;20126;-89
2023/08/29 00:16:48;;;;;;;5.88;2.17;;;13.60;99.90;;;;;;4997218;28;20432;-87
2023/08/29 00:19:15;;;;;;;6.20;2.28;;;13.60;99.90;;;;;;4996939;28;20026;-88
2023/08/29 00:21:41;;;;;;;4.95;2.22;;;13.60;99.90;;;;;;4996009;28;20036;-88
2023/08/29 00:24:10;;;;;;;4.68;2.03;;;13.70;99.90;;;;;;4996416;28;20022;-88
2023/08/29 00:26:36;;;;;;;4.53;1.90;;;13.60;99.90;;;;;;5013751;28;20036;-89
2023/08/29 00:29:02;;;;;;;6.55;2.38;;;13.60;99.90;;;;;;4995870;28;20415;-88
2023/08/29 00:31:29;;;;;;;5.88;2.70;;;13.70;99.90;;;;;;4996201;28;20045;-88
2023/08/29 00:33:54;;;;;;;6.75;2.90;;;13.70;99.90;;;;;;4996727;28;20025;-88
2023/08/29 00:36:20;;;;;;;5.05;2.88;;;13.70;99.90;;;;;;4996391;28;20069;-88
2023/08/29 00:38:46;;;;;;;9.25;3.47;;;13.60;99.90;;;;;;4996067;28;20036;-88
2023/08/29 00:41:12;;;;;;;8.65;3.95;;;13.70;99.90;;;;;;4996160;28;20053;-87
2023/08/29 00:43:38;;;;;;;6.28;2.92;;;13.70;99.90;;;;;;4996210;28;20030;-88
2023/08/29 00:46:06;;;;;;;5.88;2.83;;;13.70;99.90;;;;;;4995668;28;20050;-87
2023/08/29 00:48:32;;;;;;;8.43;2.60;;;13.70;99.90;;;;;;4995866;28;20041;-88
2023/08/29 00:50:58;;;;;;;4.30;3.28;;;13.70;99.90;;;;;;4995314;28;20022;-88
2023/08/29 00:53:26;;;;;;;5.47;3.00;;;13.70;99.90;;;;;;4995254;28;20022;-88
2023/08/29 00:55:52;;;;;;;8.13;3.20;;;13.60;99.90;;;;;;4995064;28;20042;-89
2023/08/29 00:58:18;;;;;;;6.10;3.00;;;13.70;99.90;;;;;;4995215;28;20105;-87
2023/08/29 01:00:46;;;;;;;7.00;2.88;;;13.70;99.90;;;;;;4995267;28;20649;-87
2023/08/29 01:03:12;;;;;;;5.50;3.00;;;13.60;99.90;;;;;;4995140;28;20049;-88
2023/08/29 01:05:37;;;;;;;8.90;2.90;;;13.60;99.90;;;;;;4995161;28;20084;-88
2023/08/29 01:08:04;;;;;;;5.80;2.92;;;13.60;99.90;;;;;;4995279;28;20022;-88
2023/08/29 01:10:51;;;;;;;5.55;2.40;;;13.60;99.90;;;;;;4995357;28;20487;-88
2023/08/29 01:13:41;;;;;;;5.70;2.75;;;13.60;99.90;;;;;;4995169;28;20521;-88
2023/08/29 01:16:09;;;;;;;5.25;3.15;;;13.60;99.90;;;;;;4994988;28;20044;-89
2023/08/29 01:18:38;;;;;;;9.02;3.53;;;13.60;99.90;;;;;;5012655;28;20064;-88
2023/08/29 01:21:29;;;;;;;5.70;2.95;;;13.60;99.90;;;;;;4995042;28;20044;-88
2023/08/29 01:24:10;;;;;;;5.40;2.80;;;13.60;99.90;;;;;;4994756;28;20472;-88
2023/08/29 01:26:36;;;;;;;;;;;13.60;99.90;;;;;;4995428;28;20026;-88
2023/08/29 01:29:03;;;;;;;10.20;2.65;;;13.60;99.90;;;;;;4994936;28;20525;-88
2023/08/29 01:31:30;;;;;;;4.45;2.60;;;13.60;99.90;;;;;;4994081;28;20022;-87
2023/08/29 01:34:00;;;;;;;4.47;3.00;;;13.60;99.90;;;;;;4995035;28;20053;-88
2023/08/29 01:36:44;;;;;;;5.50;3.77;;;13.50;99.90;;;;;;4994816;28;20400;-87
2023/08/29 01:39:10;;;;;;;7.68;3.72;;;13.50;99.90;;;;;;4994987;28;20029;-88
2023/08/29 01:41:36;;;;;;;6.80;2.97;;;13.50;99.90;;;;;;4995260;28;20038;-88
2023/08/29 01:44:03;;;;;;;7.22;3.70;;;13.50;99.90;;;;;;5012694;28;20065;-88
2023/08/29 01:46:29;;;;;;;7.78;3.70;;;13.50;99.90;;;;;;4994832;28;20068;-89
2023/08/29 01:48:59;;;;;;;5.13;2.90;;;13.50;99.90;;;;;;4995095;28;20022;-88
2023/08/29 01:51:25;;;;;;;6.68;3.10;;;13.50;99.90;;;;;;4994755;28;20033;-88
2023/08/29 01:53:51;;;;;;;7.30;2.67;;;13.50;99.90;;;;;;4995098;28;20038;-88
2023/08/29 01:56:19;;;;;;;7.18;3.15;;;13.50;99.90;;;;;;4995022;28;20065;-89
2023/08/29 01:58:46;;;;;;;7.88;3.35;;;13.50;99.90;;;;;;5012965;28;20022;-88
2023/08/29 02:01:12;;;;;;;6.03;3.30;;;13.40;99.90;;;;;;4998391;28;20029;-88
2023/08/29 02:03:38;;;;;;;8.85;3.53;;;13.40;99.90;;;;;;4997098;28;20022;-88
2023/08/29 02:06:03;;;;;;;6.90;2.50;;;13.40;99.90;;;;;;4994915;28;20022;-89
2023/08/29 02:08:29;;;;;;;5.63;3.42;;;13.40;99.90;;;;;;4994756;28;20038;-88
2023/08/29 02:10:55;;;;;;;8.02;3.50;;;13.40;99.90;;;;;;4994652;28;20256;-88
2023/08/29 02:13:20;;;;;;;6.18;3.47;;;13.40;99.90;;;;;;4994815;28;20072;-88
2023/08/29 02:15:46;;;;;;;7.22;4.00;;;13.40;99.90;;;;;;4994941;28;20133;-89
2023/08/29 02:18:11;;;;;;;9.90;4.00;;;13.40;99.90;;;;;;4994637;28;20022;-89
2023/08/29 02:20:37;;;;;;;7.72;3.97;;;13.40;99.90;;;;;;4994625;28;20032;-88
2023/08/29 02:23:03;;;;;;;5.47;3.25;;;13.30;99.90;;;;;;4994524;28;20464;-88
2023/08/29 02:25:28;;;;;;;7.97;3.47;;;13.30;99.90;;;;;;4994157;28;20049;-89
2023/08/29 02:27:54;;;;;;;7.82;3.58;;;13.30;99.90;;;;;;5012172;28;20026;-89
2023/08/29 02:30:20;;;;;;;6.47;3.13;;;13.30;99.90;;;;;;4994698;28;20032;-89
2023/08/29 02:32:45;;;;;;;5.63;3.42;;;13.30;99.90;;;;;;4994657;28;20026;-89
2023/08/29 02:35:11;;;;;;;7.70;2.85;;;13.30;99.90;;;;;;4994111;28;20480;-89
2023/08/29 02:37:37;;;;;;;6.90;3.35;;;13.20;99.90;;;;;;4994368;28;20022;-88
2023/08/29 02:40:12;;;;;;;7.18;3.05;;;13.20;99.90;;;;;;4994600;28;20075;-88
2023/08/29 02:42:37;;;;;;;4.97;3.05;;;13.20;99.90;;;;;;4994589;28;20026;-88
2023/08/29 02:45:04;;;;;;;5.90;3.28;;;13.20;99.90;;;;;;4998326;28;20498;-88
2023/08/29 02:47:29;;;;;;;6.53;3.28;;;13.20;99.90;;;;;;4997960;28;20129;-88
2023/08/29 02:49:55;;;;;;;3.45;2.30;;;13.20;99.90;;;;;;4998046;28;20518;-89
2023/08/29 02:52:21;;;;;;;7.30;2.75;;;13.20;99.90;;;;;;4998298;28;20388;-88
2023/08/29 02:54:46;;;;;;;6.28;3.03;;;13.10;99.90;;;;;;4997670;28;20034;-88
2023/08/29 02:57:12;;;;;;;6.72;3.10;;;13.10;99.90;;;;;;5015399;28;20018;-89
2023/08/29 02:59:39;;;;;;;5.00;2.75;;;13.10;99.90;;;;;;4998016;28;20108;-89
2023/08/29 03:02:04;;;;;;;11.07;2.72;;;13.10;99.90;;;;;;4997577;28;20054;-88
2023/08/29 03:04:30;;;;;;;8.65;2.70;;;13.00;99.90;;;;;;4997506;28;20076;-89
2023/08/29 03:06:56;;;;;;;7.40;3.10;;;13.00;99.90;;;;;;4997721;28;20076;-90
2023/08/29 03:09:22;;;;;;;7.55;2.80;;;13.00;99.90;;;;;;4997923;28;20411;-89
2023/08/29 03:11:48;;;;;;;7.93;3.30;;;12.90;99.90;;;;;;4997705;28;20034;-88
2023/08/29 03:14:14;;;;;;;9.40;3.28;;;12.80;99.90;;;;;;4997537;28;20034;-88
2023/08/29 03:16:40;;;;;;;5.40;2.92;;;12.90;99.90;;;;;;4997472;28;20432;-88
2023/08/29 03:19:05;;;;;;;8.63;3.42;;;12.80;99.90;;;;;;4997479;28;20052;-89
2023/08/29 03:21:31;;;;;;;5.18;2.67;;;12.90;99.90;;;;;;4997392;28;20389;-89
2023/08/29 03:23:57;;;;;;;7.10;2.80;;;12.90;99.90;;;;;;4998169;28;20417;-88
2023/08/29 03:26:22;;;;;;;5.38;3.15;;;12.80;99.90;;;;;;4999216;28;20044;-88
2023/08/29 03:28:48;;;;;;;5.80;2.78;;;12.80;99.90;;;;;;4999036;28;20498;-88
2023/08/29 03:31:16;;;;;;;9.27;3.38;;;12.80;99.90;;;;;;4998491;28;20026;-88
2023/08/29 03:33:43;;;;;;;9.75;2.95;;;12.80;99.90;;;;;;4998055;28;20033;-88
2023/08/29 03:36:10;;;;;;;8.10;2.90;;;12.80;99.90;;;;;;4997392;28;20030;-88
2023/08/29 03:38:37;;;;;;;8.93;2.90;;;12.80;99.90;;;;;;4997346;28;20356;-89
2023/08/29 03:41:04;;;;;;;4.93;2.88;;;12.80;99.90;;;;;;4997088;28;20361;-88
2023/08/29 03:43:31;;;;;;;4.60;2.75;;;12.80;99.90;;;;;;4997241;28;20033;-88
2023/08/29 03:46:05;;;;;;;6.72;3.50;;;12.80;99.90;;;;;;4996894;28;20053;-88
2023/08/29 03:48:31;;;;;;;4.13;2.58;;;12.80;99.90;;;;;;4996824;28;20430;-88
2023/08/29 03:51:06;;;;;;;7.47;2.78;;;12.80;99.90;;;;;;4996792;28;20026;-88
2023/08/29 03:53:33;;;;;;;5.30;2.95;;;12.80;99.90;;;;;;5014507;28;20033;-88
2023/08/29 03:56:00;;;;;;;5.30;2.45;;;12.90;99.90;;;;;;4995699;28;20376;-88
2023/08/29 03:58:26;;;;;;;3.20;2.17;;;12.90;99.90;;;;;;5014579;28;20049;-88
2023/08/29 04:00:53;;;;;;;6.68;2.35;;;12.90;99.90;;;;;;4996767;28;20022;-88
2023/08/29 04:03:20;;;;;;;8.48;2.45;;;13.00;99.90;;;;;;4997104;28;20041;-88
2023/08/29 04:05:48;;;;;;;4.78;2.38;;;13.00;99.90;;;;;;4997314;28;20052;-88
2023/08/29 04:08:14;;;;;;;5.03;2.25;;;13.10;99.90;;;;;;5005857;28;20388;-88
2023/08/29 04:10:41;;;;;;;8.10;2.70;;;13.10;99.90;;;;;;5003745;28;20069;-89
2023/08/29 04:13:07;;;;;;;4.32;2.17;;;13.10;99.90;;;;;;4997429;28;20026;-88
2023/08/29 04:15:34;;;;;;;5.97;2.25;;;13.10;99.90;;;;;;4996640;28;20036;-88
2023/08/29 04:18:00;;;;;;;8.88;2.45;;;13.10;99.90;;;;;;4996442;28;20028;-88
2023/08/29 04:20:26;;;;;;;8.75;2.88;;;13.10;99.90;;;;;;4996534;28;20066;-88
2023/08/29 04:22:52;;;;;;;6.47;2.45;;;13.10;99.90;;;;;;4996170;28;20030;-88
2023/08/29 04:25:18;;;;;;;5.70;2.75;;;13.10;99.90;;;;;;4996086;28;20480;-88
2023/08/29 04:27:46;;;;;;;8.38;2.90;;;13.10;99.90;;;;;;4996364;28;20022;-88
2023/08/29 04:30:12;;;;;;;6.25;2.70;;;13.10;99.90;;;;;;4996173;28;20030;-88
2023/08/29 04:32:37;;;;;;;7.60;2.58;;;13.10;99.90;;;;;;4996141;28;20025;-88
2023/08/29 04:35:08;;;;;;;6.18;2.63;;;13.10;99.90;;;;;;4996375;28;20048;-89
2023/08/29 04:37:34;;;;;;;5.32;2.90;;;13.10;99.90;;;;;;4996595;28;20038;-89
2023/08/29 04:40:00;;;;;;;5.95;2.65;;;13.10;99.90;;;;;;4995869;28;20030;-88
2023/08/29 04:42:26;;;;;;;5.95;2.70;;;13.10;99.90;;;;;;4996146;28;20029;-88
2023/08/29 04:44:54;;;;;;;6.57;2.65;;;13.10;99.90;;;;;;4995816;28;20030;-88
2023/08/29 04:47:22;;;;;;;4.22;2.10;;;13.00;99.90;;;;;;4996628;28;20046;-88
2023/08/29 04:49:48;;;;;;;6.65;2.10;;;13.00;99.90;;;;;;4996255;28;20529;-88
2023/08/29 04:52:14;;;;;;;4.70;2.60;;;13.00;99.90;;;;;;4996380;28;20117;-88
2023/08/29 04:54:40;;;;;;;6.85;2.92;;;13.00;99.90;;;;;;4995838;28;20526;-88
2023/08/29 04:57:05;;;;;;;4.03;2.70;;;13.00;99.90;;;;;;4996140;28;20026;-88
2023/08/29 04:59:31;;;;;;;3.75;2.40;;;13.10;99.90;;;;;;4995604;28;20022;-88
2023/08/29 05:01:57;;;;;;;5.43;2.50;;;13.10;99.90;;;;;;4995718;28;20065;-88
2023/08/29 05:04:22;;;;;;;5.82;2.58;;;13.00;99.90;;;;;;4995980;28;20018;-88
2023/08/29 05:06:48;;;;;;;4.30;2.30;;;13.00;99.90;;;;;;4995495;28;20058;-88
2023/08/29 05:09:14;;;;;;;4.15;2.20;;;13.00;99.90;;;;;;4995565;28;20017;-88
2023/08/29 05:11:40;;;;;;;4.68;2.67;;;13.00;99.90;;;;;;5013621;28;20452;-88
2023/08/29 05:14:05;;;;;;;5.72;2.50;;;13.10;99.90;;;;;;4995530;28;20048;-88
2023/08/29 05:16:34;;;;;;;3.75;2.50;;;13.00;99.90;;;;;;4995634;28;20045;-88
2023/08/29 05:18:59;;;;;;;4.65;2.10;;;13.00;99.90;;;;;;4995554;28;20030;-88
2023/08/29 05:21:25;;;;;;;3.92;2.10;;;13.00;99.90;;;;;;4995747;28;20426;-88
2023/08/29 05:23:51;;;;;;;4.82;2.00;;;13.00;99.90;;;;;;4995502;28;20022;-88
2023/08/29 05:26:17;;;;;;;4.95;2.25;;;13.10;99.90;;;;;;4995763;28;20026;-88
2023/08/29 05:28:42;;;;;;;5.50;2.53;;;13.10;99.90;;;;;;4995692;28;20029;-88
2023/08/29 05:31:08;;;;;;;4.80;2.00;;;13.10;99.90;;;;;;4995800;28;20033;-88
2023/08/29 05:33:33;;;;;;;5.45;2.13;;;13.10;99.90;;;;;;4995544;28;20029;-88
2023/08/29 05:35:59;;;;;;;4.00;1.75;;;13.10;99.90;;;;;;4995267;28;20037;-87
2023/08/29 05:38:25;;;;;;;4.38;2.13;;;13.10;99.90;;;;;;4995219;28;20022;-88
2023/08/29 05:40:52;;;;;;;4.13;2.10;;;13.10;99.90;;;;;;4994992;28;20029;-88
2023/08/29 05:43:18;;;;;;;4.40;2.20;;;13.10;99.90;;;;;;4995278;28;20022;-88
2023/08/29 05:45:43;;;;;;;8.45;2.53;;;13.10;99.90;;;;;;4995230;28;20419;-89
2023/08/29 05:48:09;;;;;;;4.00;2.10;;;13.20;99.90;;;;;;4995432;28;20030;-88
2023/08/29 05:50:35;;;;;;;5.70;1.85;;;13.20;99.90;;;;;;4994689;28;20022;-89
2023/08/29 05:53:00;;;;;;;5.25;2.58;;;13.20;99.90;;;;;;4995107;28;20038;-88
2023/08/29 05:55:26;;;;;;;4.28;2.03;;;13.20;99.90;;;;;;4995201;28;20522;-89
2023/08/29 05:57:52;;;;;;;5.53;1.80;;;13.20;99.90;;;;;;4994785;28;20065;-87
2023/08/29 06:00:19;;;;;;;4.53;1.67;;;13.20;99.90;;;;;;4995386;28;20026;-88
2023/08/29 06:02:44;;;;;;;3.85;2.00;;;13.20;99.90;;;;;;4995163;28;20423;-88
2023/08/29 06:05:10;;;;;;;8.63;1.88;;;13.30;99.90;;;;;;4995500;28;20065;-88
2023/08/29 06:07:38;;;;;;;3.45;2.47;;;13.20;99.90;;;;;;4995483;28;20356;-88
2023/08/29 06:10:08;;;;;;;5.38;2.08;;;13.30;99.90;;;;;;4995258;28;20022;-88
2023/08/29 06:12:34;;;;;;;3.73;2.40;;;13.20;99.90;;;;;;4995079;28;20033;-88
2023/08/29 06:15:00;;;;;;;3.67;2.20;;;13.30;99.90;;;;;;4994893;28;20041;-88
2023/08/29 06:17:25;;;;;;;5.32;2.20;;;13.30;99.90;;;;;;4998514;28;20097;-88
2023/08/29 06:19:51;;;;;;;5.30;2.20;;;13.30;99.90;;;;;;4998895;28;20056;-88
2023/08/29 06:22:17;;;;;;;6.10;3.55;;;13.30;99.90;;;;;;4998854;28;20084;-88
2023/08/29 06:24:42;;;;;;;7.82;2.83;;;13.30;99.90;;;;;;4998712;28;20537;-88
2023/08/29 06:27:08;;;;;;;3.53;2.35;;;13.40;99.90;;;;;;4998419;28;20476;-88
2023/08/29 06:29:34;;;;;;;3.78;2.63;;;13.40;99.90;;;;;;4998570;28;20047;-88
2023/08/29 06:31:59;;;;;;;7.40;2.90;;;13.40;99.90;;;;;;4998290;28;20034;-88
2023/08/29 06:45:41;;;;;;;5.43;2.63;;;13.40;99.90;;;;;;5066524;28;20462;-87
2023/08/29 06:48:06;;;;;;;5.00;2.60;;;13.70;99.90;;;;;;5065682;28;20056;-89
2023/08/29 06:50:32;;;;;;;5.60;2.70;;;13.70;99.90;;;;;;5065834;28;20096;-89
2023/08/29 06:52:58;;;;;;;7.18;2.95;;;13.70;99.90;;;;;;5065093;28;20063;-89
2023/08/29 06:55:24;;;;;;;6.78;3.50;;;13.80;99.90;;;;;;5065315;28;20057;-89
2023/08/29 06:57:49;;;;;;;7.75;3.00;;;13.80;99.90;;;;;;5065460;28;20487;-88
2023/08/29 07:00:16;;;;;;;12.15;4.25;;;13.80;99.90;;;;;;5065100;28;20021;-88
2023/08/29 07:02:42;;;;;;;3.45;2.42;;;13.80;99.90;;;;;;5065456;28;20025;-89
2023/08/29 07:05:08;;;;;;;5.53;3.50;;;13.80;99.90;;;;;;5065296;28;20535;-88
2023/08/29 07:07:35;;;;;;;8.95;4.13;;;13.90;99.90;;;;;;5064997;28;20542;-89
2023/08/29 07:10:02;;;;;;;6.10;3.92;;;13.90;99.90;;;;;;5066540;28;20175;-89
2023/08/29 07:12:28;;;;;;;7.25;3.70;;;13.90;99.90;;;;;;5065825;28;20025;-88
2023/08/29 07:14:53;;;;;;;8.80;4.47;;;14.00;99.90;;;;;;5066708;28;20059;-88
2023/08/29 07:17:19;;;;;;;7.68;5.05;;;14.00;99.90;;;;;;5065186;28;20531;-88
2023/08/29 07:19:45;;;;;;;7.95;4.40;;;14.10;99.90;;;;;;5065836;28;20035;-88
2023/08/29 07:22:11;;;;;;;7.50;3.92;;;14.10;99.90;;;;;;5066868;28;20020;-88
2023/08/29 07:24:39;;;;;;;10.88;5.38;;;14.20;99.90;;;;;;5066641;28;20013;-89
2023/08/29 07:27:06;;;;;;;8.88;5.35;;;14.20;99.90;;;;;;5065412;28;20068;-88
2023/08/29 07:29:31;;;;;;;9.93;5.35;;;14.30;99.90;;;;;;5064807;28;20040;-89
2023/08/29 07:31:57;;;;;;;9.35;5.35;;;14.40;99.90;;;;;;5064766;28;20028;-88
2023/08/29 07:34:23;;;;;;;10.02;5.15;;;14.40;99.90;;;;;;5065783;28;20068;-88
2023/08/29 07:36:49;;;;;;;9.55;5.68;;;14.50;99.90;;;;;;5064238;28;20025;-89
2023/08/29 07:39:18;;;;;;;9.45;6.03;;;14.50;99.90;;;;;;5064481;28;20024;-88
2023/08/29 07:41:44;;;;;;;10.60;5.00;;;14.50;99.90;;;;;;5064316;28;20021;-88
2023/08/29 07:44:10;;;;;;;11.88;7.45;;;14.60;99.90;;;;;;5065380;27;20483;-90
2023/08/29 07:46:36;;;;;;;9.98;6.38;;;14.60;99.90;;;;;;5052674;28;20032;-88
2023/08/29 07:49:01;;;;;;;16.50;8.82;;;14.60;99.90;;;;;;5052058;28;20044;-89
2023/08/29 07:51:27;;;;;;;17.23;9.02;;;14.60;99.90;;;;;;5051877;28;20040;-89
2023/08/29 07:53:53;;;;;;;14.70;8.50;;;14.60;99.90;;;;;;5050759;28;20494;-88
2023/08/29 07:56:18;;;;;;;16.38;10.20;;;14.70;99.90;;;;;;5052280;28;20024;-89
2023/08/29 07:58:44;;;;;;;12.25;8.23;;;14.70;99.90;;;;;;5051160;28;20035;-89
2023/08/29 08:01:10;;;;;;;13.23;8.73;;;14.70;99.90;;;;;;5051559;28;20033;-89
2023/08/29 08:03:35;;;;;;;18.55;8.85;;;14.60;99.90;;;;;;5054553;28;20036;-89
2023/08/29 08:06:01;;;;;;;10.68;7.90;;;14.70;99.90;;;;;;5050606;28;20029;-88
2023/08/29 08:08:27;;;;;;;11.45;7.55;;;14.70;99.90;;;;;;5050834;28;20025;-90
2023/08/29 08:10:52;;;;;;;11.65;7.68;;;14.70;99.90;;;;;;5050527;28;20033;-89
2023/08/29 08:13:18;;;;;;;14.13;7.38;;;14.80;99.90;;;;;;5050459;28;20032;-89
2023/08/29 08:15:43;;;;;;;8.15;6.63;;;14.80;99.90;;;;;;5051414;28;20037;-89
2023/08/29 08:18:09;;;;;;;10.20;6.80;;;14.90;99.90;;;;;;5051654;28;20029;-88
2023/08/29 08:20:35;;;;;;;8.02;6.10;;;14.90;99.90;;;;;;5051363;28;20480;-88
2023/08/29 08:23:00;;;;;;;11.85;6.43;;;15.00;99.90;;;;;;5050764;28;20029;-88
2023/08/29 08:25:26;;;;;;;7.10;5.72;;;15.00;99.90;;;;;;5051728;28;20029;-89
2023/08/29 08:27:52;;;;;;;8.00;5.35;;;15.00;99.90;;;;;;5050713;28;20490;-89
2023/08/29 08:30:17;;;;;;;10.05;5.93;;;15.00;99.90;;;;;;5050586;28;20025;-89
2023/08/29 08:32:43;;;;;;;7.03;5.57;;;15.00;99.90;;;;;;5050675;28;20093;-89
2023/08/29 08:35:10;;;;;;;7.28;5.18;;;15.00;99.90;;;;;;5050104;28;20033;-88
2023/08/29 08:37:36;;;;;;;8.90;5.90;;;15.00;99.90;;;;;;5051699;28;20026;-88
2023/08/29 08:40:11;;;;;;;7.85;4.97;;;15.00;99.90;;;;;;5050087;28;20041;-89
2023/08/29 08:42:39;;;;;;;9.05;5.20;;;15.00;99.90;;;;;;5050589;28;20029;-89
2023/08/29 08:45:06;;;;;;;8.27;5.32;;;15.00;99.90;;;;;;5050156;28;20049;-89
2023/08/29 08:47:34;;;;;;;5.45;4.30;;;15.00;99.90;;;;;;5050662;28;20033;-89
2023/08/29 08:49:59;;;;;;;6.22;4.80;;;15.00;99.90;;;;;;5051327;28;20043;-89
2023/08/29 08:52:25;;;;;;;8.30;5.40;;;15.10;99.90;;;;;;5050779;28;20029;-89
2023/08/29 08:54:51;;;;;;;6.40;4.70;;;15.10;99.90;;;;;;5051690;28;20035;-88
2023/08/29 08:57:16;;;;;;;7.45;6.15;;;15.10;99.90;;;;;;5050683;28;20034;-89
2023/08/29 08:59:42;;;;;;;10.48;6.97;;;15.20;99.90;;;;;;5050251;28;20029;-88
2023/08/29 09:02:14;;;;;;;9.35;7.03;;;15.20;99.90;;;;;;5050920;28;20029;-88
2023/08/29 09:04:40;;;;;;;8.73;7.18;;;15.30;99.90;;;;;;5050281;28;20025;-89
2023/08/29 09:07:05;;;;;;;9.23;7.20;;;15.30;99.90;;;;;;5050663;28;20023;-89
2023/08/29 09:09:31;;;;;;;11.10;6.78;;;15.30;99.90;;;;;;5051991;28;20033;-88
2023/08/29 09:11:57;;;;;;;9.32;6.85;;;15.40;99.90;;;;;;5050020;28;20021;-88
2023/08/29 09:14:24;;;;;;;9.85;6.82;;;15.40;99.90;;;;;;5049959;28;20032;-89
2023/08/29 09:16:54;;;;;;;10.40;6.72;;;15.40;99.90;;;;;;5051068;28;20021;-89
2023/08/29 09:19:22;;;;;;;12.43;6.27;;;15.50;99.90;;;;;;5050092;28;20491;-89
2023/08/29 09:21:48;;;;;;;8.73;5.22;;;15.60;99.90;;;;;;5051168;28;20395;-88
2023/08/29 09:24:14;;;;;;;9.02;5.68;;;15.70;99.90;;;;;;5050066;28;20031;-89
2023/08/29 09:26:41;;;;;;;10.02;5.53;;;15.80;99.90;;;;;;5050251;28;20441;-88
2023/08/29 09:29:18;;;;;;;7.60;5.28;;;15.90;99.90;;;;;;5050418;28;20025;-90
2023/08/29 09:31:46;;;;;;;9.48;5.55;;;16.00;99.90;;;;;;5051500;28;20507;-88
2023/08/29 09:34:29;;;;;;;9.85;5.45;;;16.10;99.90;;;;;;5049611;28;20051;-88
2023/08/29 09:36:59;;;;;;;7.93;5.75;;;16.20;99.90;;;;;;5050159;28;20029;-87
2023/08/29 09:39:26;;;;;;;11.13;6.20;;;16.20;99.90;;;;;;5049627;28;20036;-90
2023/08/29 09:42:06;;;;;;;9.68;6.22;;;16.30;99.90;;;;;;5049820;28;20284;-89
2023/08/29 09:44:37;;;;;;;16.17;7.10;;;16.40;99.90;;;;;;5049651;28;20083;-88
2023/08/29 09:47:04;;;;;;;9.05;5.50;;;16.50;99.90;;;;;;5050053;28;20074;-89
2023/08/29 09:49:50;;;;;;;9.98;6.32;;;16.60;99.90;;;;;;5051605;28;20021;-89
2023/08/29 09:52:17;;;;;;;11.27;7.60;;;16.60;99.90;;;;;;5051418;27;20021;-88
2023/08/29 09:54:52;;;;;;;14.02;6.85;;;16.70;99.90;;;;;;5050020;28;20029;-89
2023/08/29 09:57:19;;;;;;;8.45;6.03;;;16.80;99.90;;;;;;5051807;28;20021;-88
2023/08/29 09:59:46;;;;;;;11.32;7.50;;;16.90;99.90;;;;;;5049614;28;20479;-89
2023/08/29 10:02:14;;;;;;;10.10;6.40;;;17.00;99.90;;;;;;5049387;28;20111;-88
2023/08/29 10:04:46;;;;;;;11.55;6.78;;;17.10;99.90;;;;;;5051631;28;20033;-88
2023/08/29 10:07:42;;;;;;;11.05;6.35;;;17.20;99.90;;;;;;5049895;28;20025;-89
2023/08/29 10:10:10;;;;;;;8.95;6.60;;;17.40;99.90;;;;;;5052060;27;20074;-89
2023/08/29 10:12:36;;;;;;;9.10;6.07;;;17.50;99.90;;;;;;5053082;28;20021;-89
2023/08/29 10:15:04;;;;;;;8.93;5.53;;;17.60;99.90;;;;;;5049432;28;20037;-89
2023/08/29 10:17:32;;;;;;;6.72;5.30;;;17.70;99.90;;;;;;5049826;28;20025;-87
2023/08/29 10:19:59;;;;;;;11.75;6.35;;;17.80;99.90;;;;;;5049774;28;20032;-88
2023/08/29 10:22:29;;;;;;;10.05;5.38;;;17.90;99.90;;;;;;5049891;28;20021;-88
2023/08/29 10:24:57;;;;;;;10.15;5.05;;;18.00;99.90;;;;;;5052683;28;20048;-89
2023/08/29 10:27:23;;;;;;;11.55;4.82;;;18.10;99.90;;;;;;5059819;28;20009;-89
2023/08/29 10:29:48;;;;;;;7.00;4.72;;;18.20;99.90;;;;;;5057731;28;20032;-89
2023/08/29 10:32:14;;;;;;;8.15;4.40;;;18.40;99.90;;;;;;5058364;28;20029;-89
2023/08/29 10:34:41;;;;;;;9.57;4.57;;;18.50;99.90;;;;;;5054602;28;20036;-88
2023/08/29 10:37:19;;;;;;;7.97;3.97;;;18.50;99.90;;;;;;5054918;28;20042;-88
2023/08/29 10:39:45;;;;;;;8.05;4.15;;;18.60;99.90;;;;;;5055449;28;20108;-88
2023/08/29 10:42:15;;;;;;;7.75;4.00;;;18.80;99.90;;;;;;5050378;28;20068;-89
2023/08/29 10:44:43;;;;;;;6.93;4.25;;;18.90;99.90;;;;;;5049641;28;20136;-88
2023/08/29 10:47:32;;;;;;;9.60;4.65;;;19.10;99.90;;;;;;5048859;28;20112;-87
2023/08/29 10:49:59;;;;;;;7.47;4.55;;;19.10;99.90;;;;;;5048242;28;20025;-88
2023/08/29 10:52:38;;;;;;;8.65;5.25;;;19.20;99.90;;;;;;5047984;28;20036;-87
2023/08/29 10:55:21;;;;;;;6.82;4.95;;;19.10;99.90;;;;;;5047812;28;20029;-87
2023/08/29 10:57:46;;;;;;;9.48;5.10;;;19.00;99.90;;;;;;5047800;28;20029;-87
2023/08/29 11:00:20;;;;;;;6.95;4.40;;;19.10;99.90;;;;;;5049212;28;20027;-86
2023/08/29 11:02:47;;;;;;;10.02;4.68;;;19.30;99.90;;;;;;5048929;28;20116;-88
2023/08/29 11:05:14;;;;;;;8.98;5.07;;;19.40;99.90;;;;;;5049947;28;20487;-88
2023/08/29 11:07:40;;;;;;;10.38;5.50;;;19.50;99.90;;;;;;5048386;28;20040;-88
2023/08/29 11:10:16;;;;;;;9.73;4.82;;;19.50;99.60;;;;;;5048587;28;20018;-88
2023/08/29 11:13:07;;;;;;;9.40;4.85;;;19.50;99.40;;;;;;5048675;28;20037;-89
2023/08/29 11:15:48;;;;;;;12.15;5.05;;;19.40;99.40;;;;;;5048104;28;20033;-89
2023/08/29 11:18:26;;;;;;;10.00;5.13;;;19.40;99.10;;;;;;5048216;28;20029;-89
2023/08/29 11:20:55;;;;;;;10.50;6.13;;;19.40;98.50;;;;;;5049855;28;20021;-89
2023/08/29 11:23:21;;;;;;;10.88;5.50;;;19.30;98.70;;;;;;5051718;28;20025;-88
2023/08/29 11:25:51;;;;;;;8.63;5.65;;;19.10;98.60;;;;;;5051718;28;20060;-88
2023/08/29 11:28:17;;;;;;;10.77;5.70;;;18.90;98.70;;;;;;5051386;28;20039;-89
2023/08/29 11:30:45;;;;;;;8.43;5.45;;;18.80;99.20;;;;;;5051375;28;20058;-88
2023/08/29 11:33:12;;;;;;;10.43;6.03;;;18.80;99.50;;;;;;5052470;28;20021;-89
2023/08/29 11:35:37;;;;;;;9.68;6.20;;;18.80;99.60;;;;;;5051324;28;20021;-88
2023/08/29 11:38:05;;;;;;;10.18;5.40;;;18.80;99.80;;;;;;5051468;28;20028;-89
2023/08/29 11:40:32;;;;;;;10.05;5.70;;;18.70;99.50;;;;;;5051268;28;20025;-88
2023/08/29 11:42:58;;;;;;;9.40;5.30;;;18.70;99.70;;;;;;5052459;28;20099;-88
2023/08/29 11:45:24;;;;;;;9.50;5.80;;;18.80;99.90;;;;;;5052245;28;20485;-87
2023/08/29 11:47:50;;;;;;;10.43;5.63;;;18.90;99.90;;;;;;5052343;28;20082;-89
2023/08/29 11:50:16;;;;;;;10.63;5.00;;;19.10;99.90;;;;;;5051035;28;20021;-89
2023/08/29 11:52:42;;;;;;;7.25;5.10;;;19.20;99.40;;;;;;5051303;28;20029;-89
2023/08/29 11:55:10;;;;;;;9.25;4.78;;;19.40;99.00;;;;;;5052361;28;20043;-88
2023/08/29 11:57:38;;;;;;;8.23;5.20;;;19.50;98.80;;;;;;5052441;28;20025;-89
2023/08/29 12:00:09;;;;;;;8.43;5.32;;;19.50;98.50;;;;;;5051420;28;20078;-90
2023/08/29 12:02:34;;;;;;;9.48;4.70;;;19.40;98.50;;;;;;5052313;28;20033;-89
2023/08/29 12:05:00;;;;;;;8.93;4.90;;;19.20;98.70;;;;;;5052274;28;20025;-88
2023/08/29 12:07:33;;;;;;;7.38;4.63;;;19.00;99.40;;;;;;5050774;28;20032;-89
2023/08/29 12:10:16;;;;;;;7.68;5.35;;;18.90;99.90;;;;;;5052390;28;20048;-88
2023/08/29 12:12:42;;;;;;;8.57;4.50;;;18.90;99.90;;;;;;5053129;28;20587;-88
2023/08/29 12:15:14;;;;;;;9.02;4.97;;;18.70;99.90;;;;;;5061601;28;20037;-88
2023/08/29 12:17:41;;;;;;;7.50;4.57;;;18.60;99.90;;;;;;5067756;28;20029;-88
2023/08/29 12:20:16;;;;;;;9.48;4.63;;;18.50;99.90;;;;;;5054245;28;20025;-88
2023/08/29 12:22:47;;;;;;;8.15;4.60;;;18.40;99.90;;;;;;5050773;28;20032;-88
2023/08/29 12:25:13;;;;;;;6.55;4.60;;;18.30;99.90;;;;;;5050602;28;20045;-88
2023/08/29 12:27:44;;;;;;;10.32;4.50;;;18.30;99.90;;;;;;5050335;28;20029;-88
2023/08/29 12:30:13;;;;;;;9.20;5.35;;;18.30;99.90;;;;;;5050581;28;20028;-88
2023/08/29 12:32:39;;;;;;;9.73;5.55;;;18.40;99.90;;;;;;5051740;28;20021;-88
2023/08/29 12:35:06;;;;;;;10.88;5.22;;;18.40;99.90;;;;;;5051399;28;20509;-88
2023/08/29 12:37:32;;;;;;;9.07;5.22;;;18.40;99.90;;;;;;5051954;28;20469;-88
2023/08/29 12:39:58;;;;;;;8.63;5.32;;;18.40;99.90;;;;;;5051516;28;20017;-89
2023/08/29 12:42:23;;;;;;;9.07;5.47;;;18.40;99.90;;;;;;5051367;28;20031;-88
2023/08/29 12:44:49;;;;;;;11.60;5.43;;;18.40;99.90;;;;;;5051257;28;20052;-88
2023/08/29 12:47:15;;;;;;;11.20;5.38;;;18.30;99.90;;;;;;5050369;28;20446;-89
2023/08/29 12:49:41;;;;;;;14.57;5.72;;;18.30;99.90;;;;;;5050248;28;20032;-89
2023/08/29 12:52:06;;;;;;;9.45;5.47;;;18.30;99.90;;;;;;5050158;28;20396;-88
2023/08/29 12:54:35;;;;;;;8.63;5.50;;;18.30;99.90;;;;;;5051194;28;20032;-88
2023/08/29 12:57:01;;;;;;;13.95;6.53;;;18.30;99.90;;;;;;5051207;28;20024;-87
2023/08/29 12:59:26;;;;;;;13.77;5.65;;;18.30;99.90;;;;;;5051188;28;20494;-88